sensor_id;sensor_type;location;lat;lon;timestamp;P1;durP1;ratioP1;P2;durP2;ratioP2
40122;SDS011;25832;45.490;4.912;2023-05-21T00:02:09;9.48;;;7.47;;
40122;SDS011;25832;45.490;4.912;2023-05-21T00:04:38;10.20;;;7.15;;
40122;SDS011;25832;45.490;4.912;2023-05-21T00:07:05;9.77;;;7.22;;
40122;SDS011;25832;45.490;4.912;2023-05-21T00:09:32;12.75;;;7.20;;
40122;SDS011;25832;45.490;4.912;2023-05-21T00:11:58;9.38;;;6.90;;
40122;SDS011;25832;45.490;4.912;2023-05-21T00:14:24;8.60;;;6.95;;
40122;SDS011;25832;45.490;4.912;2023-05-21T00:16:49;9.80;;;7.20;;
40122;SDS011;25832;45.490;4.912;2023-05-21T00:19:15;12.45;;;8.07;;
40122;SDS011;25832;45.490;4.912;2023-05-21T00:21:41;10.82;;;7.65;;
40122;SDS011;25832;45.490;4.912;2023-05-21T00:24:06;16.52;;;8.15;;
40122;SDS011;25832;45.490;4.912;2023-05-21T00:26:32;10.95;;;7.78;;
40122;SDS011;25832;45.490;4.912;2023-05-21T00:28:58;11.15;;;7.93;;
40122;SDS011;25832;45.490;4.912;2023-05-21T00:31:24;11.93;;;6.70;;
40122;SDS011;25832;45.490;4.912;2023-05-21T00:33:50;10.23;;;7.22;;
40122;SDS011;25832;45.490;4.912;2023-05-21T00:36:16;7.35;;;6.47;;
40122;SDS011;25832;45.490;4.912;2023-05-21T00:38:42;7.70;;;6.20;;
40122;SDS011;25832;45.490;4.912;2023-05-21T00:41:10;9.23;;;6.72;;
40122;SDS011;25832;45.490;4.912;2023-05-21T00:43:36;12.02;;;8.00;;
40122;SDS011;25832;45.490;4.912;2023-05-21T00:46:06;19.95;;;9.20;;
40122;SDS011;25832;45.490;4.912;2023-05-21T00:48:35;11.93;;;7.65;;
40122;SDS011;25832;45.490;4.912;2023-05-21T00:51:03;9.48;;;7.18;;
40122;SDS011;25832;45.490;4.912;2023-05-21T00:53:30;8.30;;;6.93;;
40122;SDS011;25832;45.490;4.912;2023-05-21T00:55:59;12.85;;;7.95;;
40122;SDS011;25832;45.490;4.912;2023-05-21T00:58:25;10.63;;;7.07;;
40122;SDS011;25832;45.490;4.912;2023-05-21T01:00:51;10.07;;;6.88;;
40122;SDS011;25832;45.490;4.912;2023-05-21T01:03:20;9.60;;;6.72;;
40122;SDS011;25832;45.490;4.912;2023-05-21T01:08:17;10.55;;;6.55;;
40122;SDS011;25832;45.490;4.912;2023-05-21T01:10:45;9.25;;;7.20;;
40122;SDS011;25832;45.490;4.912;2023-05-21T01:13:14;7.90;;;6.25;;
40122;SDS011;25832;45.490;4.912;2023-05-21T01:15:42;9.52;;;6.10;;
40122;SDS011;25832;45.490;4.912;2023-05-21T01:18:08;10.45;;;7.78;;
40122;SDS011;25832;45.490;4.912;2023-05-21T01:20:34;13.75;;;8.55;;
40122;SDS011;25832;45.490;4.912;2023-05-21T01:23:01;11.88;;;6.78;;
40122;SDS011;25832;45.490;4.912;2023-05-21T01:25:27;11.80;;;7.38;;
40122;SDS011;25832;45.490;4.912;2023-05-21T01:27:53;11.05;;;7.13;;
40122;SDS011;25832;45.490;4.912;2023-05-21T01:30:19;12.63;;;7.95;;
40122;SDS011;25832;45.490;4.912;2023-05-21T01:33:01;12.43;;;7.75;;
40122;SDS011;25832;45.490;4.912;2023-05-21T01:35:49;11.00;;;7.05;;
40122;SDS011;25832;45.490;4.912;2023-05-21T01:38:36;11.95;;;7.50;;
40122;SDS011;25832;45.490;4.912;2023-05-21T01:41:09;8.35;;;6.30;;
40122;SDS011;25832;45.490;4.912;2023-05-21T01:43:37;10.18;;;6.75;;
40122;SDS011;25832;45.490;4.912;2023-05-21T01:46:04;7.75;;;6.78;;
40122;SDS011;25832;45.490;4.912;2023-05-21T01:48:33;13.82;;;7.63;;
40122;SDS011;25832;45.490;4.912;2023-05-21T01:51:03;10.70;;;7.25;;
40122;SDS011;25832;45.490;4.912;2023-05-21T01:53:30;11.32;;;6.95;;
40122;SDS011;25832;45.490;4.912;2023-05-21T01:55:56;11.50;;;7.13;;
40122;SDS011;25832;45.490;4.912;2023-05-21T01:58:23;10.40;;;7.50;;
40122;SDS011;25832;45.490;4.912;2023-05-21T02:00:49;10.35;;;6.90;;
40122;SDS011;25832;45.490;4.912;2023-05-21T02:03:18;8.43;;;7.13;;
40122;SDS011;25832;45.490;4.912;2023-05-21T02:05:44;9.63;;;7.55;;
40122;SDS011;25832;45.490;4.912;2023-05-21T02:08:11;9.43;;;7.63;;
40122;SDS011;25832;45.490;4.912;2023-05-21T02:10:39;11.48;;;8.32;;
40122;SDS011;25832;45.490;4.912;2023-05-21T02:13:05;9.63;;;7.72;;
40122;SDS011;25832;45.490;4.912;2023-05-21T02:15:30;9.73;;;7.40;;
40122;SDS011;25832;45.490;4.912;2023-05-21T02:17:58;9.75;;;8.68;;
40122;SDS011;25832;45.490;4.912;2023-05-21T02:20:24;12.90;;;8.70;;
40122;SDS011;25832;45.490;4.912;2023-05-21T02:22:50;12.18;;;10.70;;
40122;SDS011;25832;45.490;4.912;2023-05-21T02:25:16;14.00;;;8.70;;
40122;SDS011;25832;45.490;4.912;2023-05-21T02:27:43;13.15;;;9.23;;
40122;SDS011;25832;45.490;4.912;2023-05-21T02:30:11;10.85;;;8.20;;
40122;SDS011;25832;45.490;4.912;2023-05-21T02:32:38;13.43;;;8.40;;
40122;SDS011;25832;45.490;4.912;2023-05-21T02:35:06;10.25;;;9.00;;
40122;SDS011;25832;45.490;4.912;2023-05-21T02:37:33;8.98;;;7.82;;
40122;SDS011;25832;45.490;4.912;2023-05-21T02:40:03;9.10;;;7.63;;
40122;SDS011;25832;45.490;4.912;2023-05-21T02:42:33;11.98;;;7.78;;
40122;SDS011;25832;45.490;4.912;2023-05-21T02:45:00;10.95;;;8.25;;
40122;SDS011;25832;45.490;4.912;2023-05-21T02:47:26;8.93;;;7.32;;
40122;SDS011;25832;45.490;4.912;2023-05-21T02:49:52;8.27;;;7.13;;
40122;SDS011;25832;45.490;4.912;2023-05-21T02:52:18;12.10;;;8.70;;
40122;SDS011;25832;45.490;4.912;2023-05-21T02:54:47;9.27;;;7.65;;
40122;SDS011;25832;45.490;4.912;2023-05-21T02:57:13;9.35;;;7.15;;
40122;SDS011;25832;45.490;4.912;2023-05-21T02:59:39;13.43;;;7.72;;
40122;SDS011;25832;45.490;4.912;2023-05-21T03:02:05;8.73;;;6.95;;
40122;SDS011;25832;45.490;4.912;2023-05-21T03:04:31;14.05;;;7.50;;
40122;SDS011;25832;45.490;4.912;2023-05-21T03:06:57;9.52;;;7.32;;
40122;SDS011;25832;45.490;4.912;2023-05-21T03:09:26;12.05;;;8.18;;
40122;SDS011;25832;45.490;4.912;2023-05-21T03:11:51;12.23;;;9.07;;
40122;SDS011;25832;45.490;4.912;2023-05-21T03:14:17;10.63;;;8.10;;
40122;SDS011;25832;45.490;4.912;2023-05-21T03:16:43;9.75;;;7.50;;
40122;SDS011;25832;45.490;4.912;2023-05-21T03:19:09;10.20;;;7.20;;
40122;SDS011;25832;45.490;4.912;2023-05-21T03:21:35;9.40;;;7.57;;
40122;SDS011;25832;45.490;4.912;2023-05-21T03:24:01;17.10;;;10.20;;
40122;SDS011;25832;45.490;4.912;2023-05-21T03:26:28;11.32;;;8.52;;
40122;SDS011;25832;45.490;4.912;2023-05-21T03:28:57;12.13;;;9.32;;
40122;SDS011;25832;45.490;4.912;2023-05-21T03:31:23;12.88;;;9.40;;
40122;SDS011;25832;45.490;4.912;2023-05-21T03:33:49;12.95;;;9.25;;
40122;SDS011;25832;45.490;4.912;2023-05-21T03:36:15;12.05;;;8.80;;
40122;SDS011;25832;45.490;4.912;2023-05-21T03:38:41;11.15;;;8.75;;
40122;SDS011;25832;45.490;4.912;2023-05-21T03:41:07;11.65;;;9.35;;
40122;SDS011;25832;45.490;4.912;2023-05-21T03:43:33;11.95;;;9.20;;
40122;SDS011;25832;45.490;4.912;2023-05-21T03:45:58;11.68;;;9.00;;
40122;SDS011;25832;45.490;4.912;2023-05-21T03:48:24;9.90;;;8.27;;
40122;SDS011;25832;45.490;4.912;2023-05-21T03:50:50;14.70;;;7.90;;
40122;SDS011;25832;45.490;4.912;2023-05-21T03:53:16;11.27;;;8.57;;
40122;SDS011;25832;45.490;4.912;2023-05-21T03:55:42;9.68;;;7.45;;
40122;SDS011;25832;45.490;4.912;2023-05-21T03:58:07;10.75;;;7.72;;
40122;SDS011;25832;45.490;4.912;2023-05-21T04:00:34;8.93;;;7.22;;
40122;SDS011;25832;45.490;4.912;2023-05-21T04:03:01;8.80;;;6.90;;
40122;SDS011;25832;45.490;4.912;2023-05-21T04:05:27;9.18;;;7.18;;
40122;SDS011;25832;45.490;4.912;2023-05-21T04:07:53;10.88;;;7.25;;
40122;SDS011;25832;45.490;4.912;2023-05-21T04:10:19;8.75;;;7.18;;
40122;SDS011;25832;45.490;4.912;2023-05-21T04:12:45;8.20;;;6.88;;
40122;SDS011;25832;45.490;4.912;2023-05-21T04:15:13;8.27;;;7.35;;
40122;SDS011;25832;45.490;4.912;2023-05-21T04:17:42;11.13;;;8.93;;
40122;SDS011;25832;45.490;4.912;2023-05-21T04:20:09;12.27;;;9.60;;
40122;SDS011;25832;45.490;4.912;2023-05-21T04:22:37;18.70;;;9.65;;
40122;SDS011;25832;45.490;4.912;2023-05-21T04:25:06;10.50;;;8.88;;
40122;SDS011;25832;45.490;4.912;2023-05-21T04:27:33;13.88;;;9.45;;
40122;SDS011;25832;45.490;4.912;2023-05-21T04:29:59;12.43;;;9.23;;
40122;SDS011;25832;45.490;4.912;2023-05-21T04:32:24;13.48;;;9.23;;
40122;SDS011;25832;45.490;4.912;2023-05-21T04:34:52;13.32;;;9.45;;
40122;SDS011;25832;45.490;4.912;2023-05-21T04:37:18;9.52;;;8.23;;
40122;SDS011;25832;45.490;4.912;2023-05-21T04:39:43;14.80;;;9.60;;
40122;SDS011;25832;45.490;4.912;2023-05-21T04:42:10;13.38;;;9.02;;
40122;SDS011;25832;45.490;4.912;2023-05-21T04:44:37;10.55;;;8.30;;
40122;SDS011;25832;45.490;4.912;2023-05-21T04:47:04;13.07;;;8.70;;
40122;SDS011;25832;45.490;4.912;2023-05-21T04:49:30;10.25;;;7.65;;
40122;SDS011;25832;45.490;4.912;2023-05-21T04:51:55;12.23;;;8.85;;
40122;SDS011;25832;45.490;4.912;2023-05-21T04:54:21;13.70;;;8.63;;
40122;SDS011;25832;45.490;4.912;2023-05-21T04:56:47;12.20;;;8.80;;
40122;SDS011;25832;45.490;4.912;2023-05-21T04:59:13;11.45;;;8.63;;
40122;SDS011;25832;45.490;4.912;2023-05-21T05:01:39;9.75;;;8.50;;
40122;SDS011;25832;45.490;4.912;2023-05-21T05:04:07;11.43;;;9.07;;
40122;SDS011;25832;45.490;4.912;2023-05-21T05:06:33;10.88;;;9.73;;
40122;SDS011;25832;45.490;4.912;2023-05-21T05:08:59;18.45;;;9.82;;
40122;SDS011;25832;45.490;4.912;2023-05-21T05:11:24;10.00;;;8.60;;
40122;SDS011;25832;45.490;4.912;2023-05-21T05:13:50;12.80;;;9.48;;
40122;SDS011;25832;45.490;4.912;2023-05-21T05:16:17;11.43;;;8.80;;
40122;SDS011;25832;45.490;4.912;2023-05-21T05:18:48;9.93;;;8.75;;
40122;SDS011;25832;45.490;4.912;2023-05-21T05:21:17;14.45;;;9.40;;
40122;SDS011;25832;45.490;4.912;2023-05-21T05:23:43;11.18;;;8.65;;
40122;SDS011;25832;45.490;4.912;2023-05-21T05:26:12;12.73;;;8.80;;
40122;SDS011;25832;45.490;4.912;2023-05-21T05:28:37;12.50;;;9.35;;
40122;SDS011;25832;45.490;4.912;2023-05-21T05:31:03;13.60;;;10.73;;
40122;SDS011;25832;45.490;4.912;2023-05-21T05:33:29;16.88;;;11.13;;
40122;SDS011;25832;45.490;4.912;2023-05-21T05:35:54;20.25;;;12.05;;
40122;SDS011;25832;45.490;4.912;2023-05-21T05:38:20;16.05;;;12.10;;
40122;SDS011;25832;45.490;4.912;2023-05-21T05:40:46;16.75;;;11.60;;
40122;SDS011;25832;45.490;4.912;2023-05-21T05:43:11;14.95;;;11.38;;
40122;SDS011;25832;45.490;4.912;2023-05-21T05:45:37;12.70;;;10.45;;
40122;SDS011;25832;45.490;4.912;2023-05-21T05:48:03;12.57;;;11.07;;
40122;SDS011;25832;45.490;4.912;2023-05-21T05:50:28;19.95;;;12.50;;
40122;SDS011;25832;45.490;4.912;2023-05-21T05:52:54;17.33;;;13.18;;
40122;SDS011;25832;45.490;4.912;2023-05-21T05:55:20;20.75;;;13.40;;
40122;SDS011;25832;45.490;4.912;2023-05-21T05:57:46;19.27;;;12.90;;
40122;SDS011;25832;45.490;4.912;2023-05-21T06:00:11;15.13;;;11.23;;
40122;SDS011;25832;45.490;4.912;2023-05-21T06:02:37;16.25;;;12.10;;
40122;SDS011;25832;45.490;4.912;2023-05-21T06:05:03;18.75;;;13.60;;
40122;SDS011;25832;45.490;4.912;2023-05-21T06:07:30;17.95;;;12.68;;
40122;SDS011;25832;45.490;4.912;2023-05-21T06:09:56;17.88;;;12.63;;
40122;SDS011;25832;45.490;4.912;2023-05-21T06:12:22;15.55;;;12.10;;
40122;SDS011;25832;45.490;4.912;2023-05-21T06:14:48;17.42;;;12.73;;
40122;SDS011;25832;45.490;4.912;2023-05-21T06:17:14;17.08;;;12.63;;
40122;SDS011;25832;45.490;4.912;2023-05-21T06:19:40;18.67;;;12.57;;
40122;SDS011;25832;45.490;4.912;2023-05-21T06:22:06;15.35;;;12.27;;
40122;SDS011;25832;45.490;4.912;2023-05-21T06:24:32;14.77;;;12.35;;
40122;SDS011;25832;45.490;4.912;2023-05-21T06:26:57;13.55;;;11.25;;
40122;SDS011;25832;45.490;4.912;2023-05-21T06:29:23;18.00;;;12.30;;
40122;SDS011;25832;45.490;4.912;2023-05-21T06:31:48;20.80;;;12.82;;
40122;SDS011;25832;45.490;4.912;2023-05-21T06:34:14;16.23;;;12.98;;
40122;SDS011;25832;45.490;4.912;2023-05-21T06:36:40;19.80;;;10.85;;
40122;SDS011;25832;45.490;4.912;2023-05-21T06:39:06;16.65;;;12.70;;
40122;SDS011;25832;45.490;4.912;2023-05-21T06:41:32;16.02;;;13.18;;
40122;SDS011;25832;45.490;4.912;2023-05-21T06:43:57;15.45;;;12.88;;
40122;SDS011;25832;45.490;4.912;2023-05-21T06:46:23;17.65;;;14.20;;
40122;SDS011;25832;45.490;4.912;2023-05-21T06:48:48;17.17;;;13.48;;
40122;SDS011;25832;45.490;4.912;2023-05-21T06:51:14;16.95;;;12.27;;
40122;SDS011;25832;45.490;4.912;2023-05-21T06:53:40;14.48;;;11.48;;
40122;SDS011;25832;45.490;4.912;2023-05-21T06:56:06;13.75;;;11.52;;
40122;SDS011;25832;45.490;4.912;2023-05-21T06:58:31;16.20;;;11.23;;
40122;SDS011;25832;45.490;4.912;2023-05-21T07:00:58;16.48;;;12.38;;
40122;SDS011;25832;45.490;4.912;2023-05-21T07:03:24;15.10;;;11.23;;
40122;SDS011;25832;45.490;4.912;2023-05-21T07:05:51;15.18;;;11.52;;
40122;SDS011;25832;45.490;4.912;2023-05-21T07:08:19;16.73;;;11.60;;
40122;SDS011;25832;45.490;4.912;2023-05-21T07:10:45;12.30;;;10.38;;
40122;SDS011;25832;45.490;4.912;2023-05-21T07:13:11;12.85;;;9.82;;
40122;SDS011;25832;45.490;4.912;2023-05-21T07:15:37;12.88;;;10.88;;
40122;SDS011;25832;45.490;4.912;2023-05-21T07:18:02;10.52;;;9.10;;
40122;SDS011;25832;45.490;4.912;2023-05-21T07:20:28;13.75;;;11.75;;
40122;SDS011;25832;45.490;4.912;2023-05-21T07:22:54;11.38;;;10.15;;
40122;SDS011;25832;45.490;4.912;2023-05-21T07:25:19;14.80;;;11.27;;
40122;SDS011;25832;45.490;4.912;2023-05-21T07:27:45;11.57;;;9.50;;
40122;SDS011;25832;45.490;4.912;2023-05-21T07:30:13;11.80;;;10.38;;
40122;SDS011;25832;45.490;4.912;2023-05-21T07:32:39;13.75;;;9.60;;
40122;SDS011;25832;45.490;4.912;2023-05-21T07:35:05;16.15;;;10.95;;
40122;SDS011;25832;45.490;4.912;2023-05-21T07:37:31;13.45;;;10.38;;
40122;SDS011;25832;45.490;4.912;2023-05-21T07:39:56;14.48;;;10.63;;
40122;SDS011;25832;45.490;4.912;2023-05-21T07:42:25;11.15;;;9.82;;
40122;SDS011;25832;45.490;4.912;2023-05-21T07:44:51;12.45;;;10.13;;
40122;SDS011;25832;45.490;4.912;2023-05-21T07:47:17;11.75;;;9.73;;
40122;SDS011;25832;45.490;4.912;2023-05-21T07:49:42;12.60;;;9.40;;
40122;SDS011;25832;45.490;4.912;2023-05-21T07:52:08;15.40;;;10.32;;
40122;SDS011;25832;45.490;4.912;2023-05-21T07:54:34;13.77;;;10.65;;
40122;SDS011;25832;45.490;4.912;2023-05-21T07:56:59;13.30;;;10.90;;
40122;SDS011;25832;45.490;4.912;2023-05-21T07:59:28;15.13;;;10.57;;
40122;SDS011;25832;45.490;4.912;2023-05-21T08:01:54;13.57;;;9.70;;
40122;SDS011;25832;45.490;4.912;2023-05-21T08:04:20;17.70;;;12.00;;
40122;SDS011;25832;45.490;4.912;2023-05-21T08:06:46;12.65;;;11.13;;
40122;SDS011;25832;45.490;4.912;2023-05-21T08:09:12;15.82;;;9.85;;
40122;SDS011;25832;45.490;4.912;2023-05-21T08:11:38;13.70;;;11.18;;
40122;SDS011;25832;45.490;4.912;2023-05-21T08:14:04;14.10;;;11.43;;
40122;SDS011;25832;45.490;4.912;2023-05-21T08:16:30;14.88;;;11.68;;
40122;SDS011;25832;45.490;4.912;2023-05-21T08:18:56;15.23;;;11.82;;
40122;SDS011;25832;45.490;4.912;2023-05-21T08:21:21;15.02;;;11.35;;
40122;SDS011;25832;45.490;4.912;2023-05-21T08:23:47;15.98;;;11.52;;
40122;SDS011;25832;45.490;4.912;2023-05-21T08:26:13;13.15;;;10.48;;
40122;SDS011;25832;45.490;4.912;2023-05-21T08:28:41;13.88;;;11.43;;
40122;SDS011;25832;45.490;4.912;2023-05-21T08:31:07;12.48;;;10.80;;
40122;SDS011;25832;45.490;4.912;2023-05-21T08:33:36;15.27;;;10.60;;
40122;SDS011;25832;45.490;4.912;2023-05-21T08:36:05;16.77;;;11.38;;
40122;SDS011;25832;45.490;4.912;2023-05-21T08:38:31;14.48;;;11.40;;
40122;SDS011;25832;45.490;4.912;2023-05-21T08:40:58;14.35;;;10.73;;
40122;SDS011;25832;45.490;4.912;2023-05-21T08:43:27;15.95;;;11.25;;
40122;SDS011;25832;45.490;4.912;2023-05-21T08:45:55;14.20;;;10.98;;
40122;SDS011;25832;45.490;4.912;2023-05-21T08:48:23;17.90;;;11.57;;
40122;SDS011;25832;45.490;4.912;2023-05-21T08:50:52;13.48;;;12.07;;
40122;SDS011;25832;45.490;4.912;2023-05-21T08:53:19;17.13;;;11.68;;
40122;SDS011;25832;45.490;4.912;2023-05-21T08:55:45;13.27;;;11.32;;
40122;SDS011;25832;45.490;4.912;2023-05-21T08:58:11;13.00;;;11.45;;
40122;SDS011;25832;45.490;4.912;2023-05-21T09:00:38;16.63;;;12.13;;
40122;SDS011;25832;45.490;4.912;2023-05-21T09:03:04;12.70;;;11.27;;
40122;SDS011;25832;45.490;4.912;2023-05-21T09:05:37;15.15;;;11.63;;
40122;SDS011;25832;45.490;4.912;2023-05-21T09:08:12;17.15;;;12.35;;
40122;SDS011;25832;45.490;4.912;2023-05-21T09:10:59;13.45;;;11.90;;
40122;SDS011;25832;45.490;4.912;2023-05-21T09:13:26;13.00;;;9.98;;
40122;SDS011;25832;45.490;4.912;2023-05-21T09:15:55;17.20;;;12.35;;
40122;SDS011;25832;45.490;4.912;2023-05-21T09:18:21;18.80;;;11.98;;
40122;SDS011;25832;45.490;4.912;2023-05-21T09:20:46;15.98;;;12.45;;
40122;SDS011;25832;45.490;4.912;2023-05-21T09:23:13;13.50;;;11.77;;
40122;SDS011;25832;45.490;4.912;2023-05-21T09:25:45;15.63;;;12.10;;
40122;SDS011;25832;45.490;4.912;2023-05-21T09:28:12;17.33;;;12.75;;
40122;SDS011;25832;45.490;4.912;2023-05-21T09:33:11;14.43;;;12.85;;
40122;SDS011;25832;45.490;4.912;2023-05-21T09:35:48;16.52;;;13.25;;
40122;SDS011;25832;45.490;4.912;2023-05-21T09:38:14;20.42;;;12.93;;
40122;SDS011;25832;45.490;4.912;2023-05-21T09:40:44;14.85;;;12.05;;
40122;SDS011;25832;45.490;4.912;2023-05-21T09:43:13;15.07;;;12.05;;
40122;SDS011;25832;45.490;4.912;2023-05-21T09:45:52;16.00;;;12.90;;
40122;SDS011;25832;45.490;4.912;2023-05-21T09:51:36;20.90;;;12.52;;
40122;SDS011;25832;45.490;4.912;2023-05-21T09:53:52;16.42;;;11.93;;
40122;SDS011;25832;45.490;4.912;2023-05-21T09:56:23;14.55;;;12.32;;
40122;SDS011;25832;45.490;4.912;2023-05-21T09:58:59;15.30;;;12.45;;
40122;SDS011;25832;45.490;4.912;2023-05-21T10:01:29;12.95;;;10.90;;
40122;SDS011;25832;45.490;4.912;2023-05-21T10:03:58;14.10;;;12.60;;
40122;SDS011;25832;45.490;4.912;2023-05-21T10:06:25;17.88;;;11.07;;
40122;SDS011;25832;45.490;4.912;2023-05-21T10:08:52;13.98;;;10.60;;
40122;SDS011;25832;45.490;4.912;2023-05-21T10:11:29;14.88;;;11.48;;
40122;SDS011;25832;45.490;4.912;2023-05-21T10:13:57;13.70;;;11.38;;
40122;SDS011;25832;45.490;4.912;2023-05-21T10:16:28;13.93;;;11.88;;
40122;SDS011;25832;45.490;4.912;2023-05-21T10:18:56;13.95;;;11.20;;
40122;SDS011;25832;45.490;4.912;2023-05-21T10:21:23;14.52;;;11.98;;
40122;SDS011;25832;45.490;4.912;2023-05-21T10:23:50;16.65;;;12.57;;
40122;SDS011;25832;45.490;4.912;2023-05-21T10:26:17;14.55;;;12.45;;
40122;SDS011;25832;45.490;4.912;2023-05-21T10:28:45;16.98;;;12.18;;
40122;SDS011;25832;45.490;4.912;2023-05-21T10:31:11;14.10;;;11.95;;
40122;SDS011;25832;45.490;4.912;2023-05-21T10:33:37;12.93;;;11.15;;
40122;SDS011;25832;45.490;4.912;2023-05-21T10:36:03;14.40;;;11.93;;
40122;SDS011;25832;45.490;4.912;2023-05-21T10:38:30;15.63;;;11.40;;
40122;SDS011;25832;45.490;4.912;2023-05-21T10:40:57;13.25;;;10.00;;
40122;SDS011;25832;45.490;4.912;2023-05-21T11:00:19;12.52;;;10.25;;
40122;SDS011;25832;45.490;4.912;2023-05-21T11:02:46;12.23;;;10.18;;
40122;SDS011;25832;45.490;4.912;2023-05-21T11:05:12;17.27;;;10.45;;
40122;SDS011;25832;45.490;4.912;2023-05-21T11:07:56;15.95;;;10.65;;
40122;SDS011;25832;45.490;4.912;2023-05-21T11:10:38;13.00;;;10.57;;
40122;SDS011;25832;45.490;4.912;2023-05-21T11:13:12;12.50;;;9.95;;
40122;SDS011;25832;45.490;4.912;2023-05-21T11:18:22;14.50;;;10.95;;
40122;SDS011;25832;45.490;4.912;2023-05-21T11:21:16;13.20;;;10.15;;
40122;SDS011;25832;45.490;4.912;2023-05-21T11:23:51;11.57;;;9.50;;
40122;SDS011;25832;45.490;4.912;2023-05-21T11:26:24;15.80;;;9.88;;
40122;SDS011;25832;45.490;4.912;2023-05-21T11:31:29;12.10;;;9.85;;
40122;SDS011;25832;45.490;4.912;2023-05-21T11:34:17;13.93;;;9.35;;
40122;SDS011;25832;45.490;4.912;2023-05-21T11:37:21;12.68;;;9.43;;
40122;SDS011;25832;45.490;4.912;2023-05-21T11:39:54;12.13;;;10.15;;
40122;SDS011;25832;45.490;4.912;2023-05-21T11:42:40;12.73;;;11.20;;
40122;SDS011;25832;45.490;4.912;2023-05-21T11:45:07;13.25;;;11.20;;
40122;SDS011;25832;45.490;4.912;2023-05-21T11:47:34;11.63;;;9.95;;
40122;SDS011;25832;45.490;4.912;2023-05-21T11:50:00;15.75;;;10.85;;
40122;SDS011;25832;45.490;4.912;2023-05-21T11:52:28;10.68;;;9.65;;
40122;SDS011;25832;45.490;4.912;2023-05-21T11:54:54;12.90;;;10.75;;
40122;SDS011;25832;45.490;4.912;2023-05-21T11:57:22;11.65;;;10.10;;
40122;SDS011;25832;45.490;4.912;2023-05-21T11:59:50;12.18;;;10.98;;
40122;SDS011;25832;45.490;4.912;2023-05-21T12:02:17;14.23;;;10.45;;
40122;SDS011;25832;45.490;4.912;2023-05-21T12:04:44;12.52;;;10.20;;
40122;SDS011;25832;45.490;4.912;2023-05-21T12:07:13;12.88;;;11.48;;
40122;SDS011;25832;45.490;4.912;2023-05-21T12:12:09;10.32;;;9.30;;
40122;SDS011;25832;45.490;4.912;2023-05-21T12:14:37;11.15;;;9.73;;
40122;SDS011;25832;45.490;4.912;2023-05-21T12:17:03;10.55;;;9.13;;
40122;SDS011;25832;45.490;4.912;2023-05-21T12:19:34;13.43;;;10.18;;
40122;SDS011;25832;45.490;4.912;2023-05-21T12:22:01;16.98;;;10.60;;
40122;SDS011;25832;45.490;4.912;2023-05-21T12:24:28;10.65;;;9.40;;
40122;SDS011;25832;45.490;4.912;2023-05-21T12:26:55;11.73;;;9.77;;
40122;SDS011;25832;45.490;4.912;2023-05-21T12:29:29;11.73;;;9.75;;
40122;SDS011;25832;45.490;4.912;2023-05-21T12:32:02;11.38;;;9.90;;
40122;SDS011;25832;45.490;4.912;2023-05-21T12:34:37;11.52;;;9.43;;
40122;SDS011;25832;45.490;4.912;2023-05-21T12:37:04;9.82;;;8.30;;
40122;SDS011;25832;45.490;4.912;2023-05-21T12:39:32;12.43;;;10.00;;
40122;SDS011;25832;45.490;4.912;2023-05-21T12:42:01;11.55;;;10.15;;
40122;SDS011;25832;45.490;4.912;2023-05-21T12:44:30;12.20;;;10.57;;
40122;SDS011;25832;45.490;4.912;2023-05-21T12:46:56;14.05;;;9.20;;
40122;SDS011;25832;45.490;4.912;2023-05-21T12:49:31;10.85;;;9.70;;
40122;SDS011;25832;45.490;4.912;2023-05-21T12:51:58;10.50;;;9.48;;
40122;SDS011;25832;45.490;4.912;2023-05-21T12:54:32;12.63;;;9.80;;
40122;SDS011;25832;45.490;4.912;2023-05-21T12:57:08;11.93;;;10.73;;
40122;SDS011;25832;45.490;4.912;2023-05-21T13:02:14;13.00;;;9.98;;
40122;SDS011;25832;45.490;4.912;2023-05-21T13:04:46;13.07;;;9.07;;
40122;SDS011;25832;45.490;4.912;2023-05-21T13:07:16;12.90;;;10.50;;
40122;SDS011;25832;45.490;4.912;2023-05-21T13:09:42;13.43;;;9.77;;
40122;SDS011;25832;45.490;4.912;2023-05-21T13:12:08;12.68;;;10.02;;
40122;SDS011;25832;45.490;4.912;2023-05-21T13:14:33;12.05;;;10.15;;
40122;SDS011;25832;45.490;4.912;2023-05-21T13:16:59;13.60;;;11.02;;
40122;SDS011;25832;45.490;4.912;2023-05-21T13:19:25;14.13;;;10.70;;
40122;SDS011;25832;45.490;4.912;2023-05-21T13:21:51;11.82;;;10.57;;
40122;SDS011;25832;45.490;4.912;2023-05-21T13:24:16;13.20;;;10.40;;
40122;SDS011;25832;45.490;4.912;2023-05-21T13:26:42;12.57;;;10.73;;
40122;SDS011;25832;45.490;4.912;2023-05-21T13:29:08;12.27;;;10.50;;
40122;SDS011;25832;45.490;4.912;2023-05-21T13:31:33;12.52;;;10.98;;
40122;SDS011;25832;45.490;4.912;2023-05-21T13:33:59;12.45;;;10.75;;
40122;SDS011;25832;45.490;4.912;2023-05-21T13:36:25;13.10;;;9.75;;
40122;SDS011;25832;45.490;4.912;2023-05-21T13:38:51;14.07;;;10.60;;
40122;SDS011;25832;45.490;4.912;2023-05-21T13:41:16;11.60;;;10.40;;
40122;SDS011;25832;45.490;4.912;2023-05-21T13:43:42;11.00;;;9.57;;
40122;SDS011;25832;45.490;4.912;2023-05-21T13:46:08;10.38;;;9.27;;
40122;SDS011;25832;45.490;4.912;2023-05-21T13:48:34;12.55;;;9.65;;
40122;SDS011;25832;45.490;4.912;2023-05-21T13:50:59;11.13;;;9.93;;
40122;SDS011;25832;45.490;4.912;2023-05-21T13:53:25;11.88;;;9.45;;
40122;SDS011;25832;45.490;4.912;2023-05-21T13:55:51;11.30;;;9.43;;
40122;SDS011;25832;45.490;4.912;2023-05-21T13:58:16;11.23;;;9.60;;
40122;SDS011;25832;45.490;4.912;2023-05-21T14:00:42;10.73;;;9.60;;
40122;SDS011;25832;45.490;4.912;2023-05-21T14:03:08;10.55;;;9.27;;
40122;SDS011;25832;45.490;4.912;2023-05-21T14:05:34;11.38;;;9.65;;
40122;SDS011;25832;45.490;4.912;2023-05-21T14:08:00;10.10;;;9.07;;
40122;SDS011;25832;45.490;4.912;2023-05-21T14:10:26;10.75;;;9.65;;
40122;SDS011;25832;45.490;4.912;2023-05-21T14:12:52;12.32;;;10.90;;
40122;SDS011;25832;45.490;4.912;2023-05-21T14:15:18;12.38;;;10.80;;
40122;SDS011;25832;45.490;4.912;2023-05-21T14:17:43;11.85;;;9.35;;
40122;SDS011;25832;45.490;4.912;2023-05-21T14:20:09;11.77;;;10.57;;
40122;SDS011;25832;45.490;4.912;2023-05-21T14:22:35;12.65;;;11.30;;
40122;SDS011;25832;45.490;4.912;2023-05-21T14:25:01;12.18;;;10.20;;
40122;SDS011;25832;45.490;4.912;2023-05-21T14:27:27;12.35;;;10.05;;
40122;SDS011;25832;45.490;4.912;2023-05-21T14:29:53;13.35;;;9.98;;
40122;SDS011;25832;45.490;4.912;2023-05-21T14:32:18;11.80;;;10.55;;
40122;SDS011;25832;45.490;4.912;2023-05-21T14:34:44;14.00;;;11.25;;
40122;SDS011;25832;45.490;4.912;2023-05-21T14:37:09;11.93;;;10.73;;
40122;SDS011;25832;45.490;4.912;2023-05-21T14:39:35;12.60;;;10.02;;
40122;SDS011;25832;45.490;4.912;2023-05-21T14:42:03;11.30;;;9.60;;
40122;SDS011;25832;45.490;4.912;2023-05-21T14:44:29;11.75;;;9.98;;
40122;SDS011;25832;45.490;4.912;2023-05-21T14:46:56;12.80;;;10.25;;
40122;SDS011;25832;45.490;4.912;2023-05-21T14:49:21;13.13;;;10.70;;
40122;SDS011;25832;45.490;4.912;2023-05-21T14:51:48;10.93;;;9.73;;
40122;SDS011;25832;45.490;4.912;2023-05-21T14:54:14;13.00;;;10.95;;
40122;SDS011;25832;45.490;4.912;2023-05-21T14:56:39;11.50;;;10.30;;
40122;SDS011;25832;45.490;4.912;2023-05-21T14:59:05;11.73;;;10.52;;
40122;SDS011;25832;45.490;4.912;2023-05-21T15:01:31;12.73;;;11.43;;
40122;SDS011;25832;45.490;4.912;2023-05-21T15:03:56;12.50;;;11.20;;
40122;SDS011;25832;45.490;4.912;2023-05-21T15:06:22;14.38;;;12.82;;
40122;SDS011;25832;45.490;4.912;2023-05-21T15:08:48;18.75;;;12.25;;